METAR Data
IDs: Format: Raw Decoded Include TAF

Data at: 2239 UTC 10 May 2021

KRIL 102153Z AUTO 25014G22KT 10SM FEW110 14/01 A2995 RMK AO2 SLP110 T01390011
KRIL 102053Z AUTO 05003KT 10SM FEW029 SCT034 11/04 A2996 RMK AO2 SLP115 60000 T01110039 56014
KRIL 102050Z AUTO 00000KT 10SM SCT031 11/04 A2997 RMK AO2
KRIL 102037Z AUTO 16004KT 10SM BKN029 BKN047 11/04 A2997 RMK AO2 T01060044
KRIL 102004Z AUTO 04004KT 10SM SCT023 10/04 A2998 RMK AO2 LTG DSNT NW T01000039
KRIL 101953Z AUTO 06004KT 10SM BKN022 11/05 A2999 RMK AO2 LTG DSNT NW SLP122 T01060050
KRIL 101946Z AUTO 00000KT 10SM BKN022 BKN027 10/04 A2999 RMK AO2 T01000039
KRIL 101853Z AUTO 00000KT 10SM FEW014 BKN070 08/04 A3001 RMK AO2 RAE1755 SLP135 P0000 T00830039
KRIL 101831Z AUTO 30004KT 10SM FEW014 SCT028 OVC070 07/03 A3002 RMK AO2 RAE1755 P0000 T00720033
KRIL 101814Z AUTO 00000KT 10SM SCT011 BKN029 OVC070 07/03 A3003 RMK AO2 RAE1755 P0000 T00670028
KRIL 101804Z AUTO 00000KT 10SM SCT011 OVC030 06/03 A3003 RMK AO2 RAE1755 P0000 T00610028
KRIL 101753Z AUTO 00000KT 10SM -RA BKN011 OVC032 06/03 A3003 RMK AO2 LTG DSNT N SLP146 P0000 60004 T00610033 10061 20044 58003
KRIL 101653Z AUTO 00000KT 7SM -RA FEW009 OVC038 06/03 A3004 RMK AO2 SLP148 P0000 T00560033
KRIL 101631Z AUTO 07004KT 7SM -RA FEW008 BKN035 OVC047 06/03 A3004 RMK AO2 P0000 T00560028
KRIL 101553Z AUTO 06005KT 7SM -RA FEW021 OVC029 05/03 A3004 RMK AO2 SLP149 P0000 T00500028
KRIL 101538Z AUTO 04005KT 10SM -RA FEW015 BKN021 OVC038 05/02 A3004 RMK AO2 P0000 T00500022
KRIL 101524Z AUTO 05005KT 7SM -RA FEW007 BKN016 OVC038 05/03 A3004 RMK AO2 P0000 T00500028
KRIL 101453Z AUTO 12005KT 8SM -RA BKN018 OVC028 05/02 A3004 RMK AO2 SLP147 P0001 60004 T00500022 51004
KRIL 101445Z AUTO 14005KT 8SM -RA BKN016 OVC029 04/02 A3004 RMK AO2 P0001 T00440022
KRIL 101411Z AUTO 15005KT 4SM -RA OVC010 05/02 A3004 RMK AO2 P0001 T00500022
KRIL 101353Z AUTO 08004KT 7SM -RA BKN008 OVC015 06/03 A3004 RMK AO2 SLP142 P0001 T00560033
KRIL 101345Z AUTO 04003KT 5SM -RA BR BKN008 OVC015 06/03 A3004 RMK AO2 P0001 T00560033
KRIL 101340Z AUTO 00000KT 4SM -RA BR SCT008 BKN017 OVC023 05/03 A3004 RMK AO2 P0001 T00500028
KRIL 101332Z AUTO 00000KT 4SM -RA BR SCT008 BKN015 OVC023 05/03 A3004 RMK AO2 P0001 T00500028
KRIL 101314Z AUTO 00000KT 4SM -RA BR FEW008 OVC023 06/03 A3004 RMK AO2 P0001 T00560033
KRIL 101253Z AUTO 00000KT 5SM -RA BR OVC025 06/03 A3003 RMK AO2 SLP138 P0002 T00560033
KRIL 101153Z AUTO 31008KT 7SM -RA OVC029 06/03 A3003 RMK AO2 RAB07 SLP133 P0000 60000 T00560028 10117 20056 51011
KRIL 101144Z AUTO 32010KT 9SM -RA BKN029 OVC034 06/02 A3003 RMK AO2 RAB07 P0000 T00560022
KRIL 101053Z AUTO 33008KT 10SM BKN040 OVC080 07/01 A3002 RMK AO2 SLP128 T00670011
KRIL 100953Z AUTO 33007KT 10SM BKN042 OVC049 07/01 A3001 RMK AO2 RAB01E28 SLP124 P0000 T00720011
KRIL 100853Z AUTO 09011G20KT 10SM SCT055 BKN080 OVC090 09/00 A2999 RMK AO2 SLP114 T00890000 51006
KRIL 100753Z AUTO 34003KT 10SM FEW065 OVC085 11/M02 A2999 RMK AO2 SLP112 T01061022
KRIL 100653Z AUTO 26005KT 10SM OVC090 11/M03 A2997 RMK AO2 SLP111 T01061033 401720017
KRIL 100553Z AUTO 07005KT 10SM BKN100 BKN120 10/M02 A2997 RMK AO2 SLP111 T01001022 10161 20100 51004
KRIL 100453Z AUTO 20004KT 10SM BKN100 OVC120 11/M04 A2997 RMK AO2 SLP112 T01111039
KRIL 100353Z AUTO 17005KT 10SM OVC100 11/M04 A2997 RMK AO2 SLP114 T01111039
KRIL 100253Z AUTO 03003KT 10SM BKN100 12/M05 A2995 RMK AO2 SLP110 T01221050 53005
KRIL 100153Z AUTO 02008KT 10SM OVC100 14/M06 A2994 RMK AO2 SLP109 T01391061
KRIL 100053Z AUTO 29008KT 10SM OVC100 16/M08 A2994 RMK AO2 SLP108 T01561083
KRIL 092353Z AUTO 29009KT 10SM CLR 16/M09 A2994 RMK AO2 PK WND 27028/2312 SLP105 T01611094 10172 20128 55007
KRIL 092253Z AUTO 25010G20KT 10SM CLR 17/M11 A2993 RMK AO2 SLP099 T01671106
KRIL 092153Z AUTO 28013G30KT 10SM CLR 17/M11 A2995 RMK AO2 PK WND 27030/2145 SLP104 T01671106
KRIL 092053Z AUTO 23008G21KT 10SM FEW110 16/M11 A2996 RMK AO2 SLP108 T01611111 56018
KRIL 091953Z AUTO 30010G17KT 10SM FEW120 16/M11 A2997 RMK AO2 SLP110 T01561111
KRIL 091853Z AUTO 25008KT 10SM CLR 14/M11 A3000 RMK AO2 SLP120 T01391111
KRIL 091753Z AUTO VRB03KT 10SM CLR 13/M12 A3002 RMK AO2 SLP130 T01281117 10133 20017 56013
KRIL 091653Z AUTO 29003KT 10SM CLR 11/M11 A3003 RMK AO2 SLP134 T01111106
KRIL 091553Z AUTO 00000KT 10SM CLR 09/M11 A3005 RMK AO2 SLP140 T00941106
KRIL 091453Z AUTO VRB03KT 10SM CLR 08/M08 A3007 RMK AO2 SLP146 T00831083 50002
KRIL 091353Z AUTO 07004KT 10SM CLR 05/M06 A3008 RMK AO2 SLP152 T00501056
KRIL 091253Z AUTO 24003KT 10SM CLR 03/M07 A3007 RMK AO2 SLP154 T00281067
KRIL 091153Z AUTO 20003KT 10SM CLR 04/M09 A3006 RMK AO2 SLP145 T00391089 10100 20033 53014
KRIL 091053Z AUTO 00000KT 10SM CLR 06/M10 A3004 RMK AO2 SLP136 T00561100